Time;durP1;ratioP1;P1;durP2;ratioP2;P2;SDS_P1;SDS_P2;PMS_P1;PMS_P2;Temp;Humidity;BMP_temperature;BMP_pressure;BME280_temperature;BME280_humidity;BME280_pressure;Samples;Min_cycle;Max_cycle;Signal;HPM_P1;HPM_P2
2021/01/09 00:01:39;;;;;;;13.13;9.07;;;-1.20;99.90;;;;;;5073460;28;20185;-63
2021/01/09 00:04:05;;;;;;;11.40;7.57;;;-1.20;99.90;;;;;;5073590;28;20199;-66
2021/01/09 00:06:39;;;;;;;10.20;9.10;;;-1.30;99.90;;;;;;5073014;28;20211;-66
2021/01/09 00:09:06;;;;;;;14.73;10.20;;;-1.20;99.90;;;;;;5073462;28;20194;-66
2021/01/09 00:11:34;;;;;;;8.68;7.78;;;-1.30;99.90;;;;;;5073294;28;20163;-64
2021/01/09 00:14:00;;;;;;;12.40;8.93;;;-1.40;99.90;;;;;;5073480;28;20240;-64
2021/01/09 00:16:25;;;;;;;11.00;7.57;;;-1.30;99.90;;;;;;5073143;28;20663;-64
2021/01/09 00:18:52;;;;;;;12.80;10.33;;;-1.40;99.90;;;;;;5073061;28;20409;-64
2021/01/09 00:21:18;;;;;;;9.75;8.75;;;-1.40;99.90;;;;;;5073054;28;20168;-63
2021/01/09 00:23:43;;;;;;;13.70;7.80;;;-1.40;99.90;;;;;;5073921;28;20225;-64
2021/01/09 00:26:09;;;;;;;11.10;8.30;;;-1.30;99.90;;;;;;5073024;28;20197;-64
2021/01/09 00:28:34;;;;;;;10.97;8.60;;;-1.40;99.90;;;;;;5072770;28;20198;-65
2021/01/09 00:31:00;;;;;;;9.83;8.80;;;-1.30;99.90;;;;;;5073143;28;20167;-64
2021/01/09 00:33:25;;;;;;;9.73;7.90;;;-1.40;99.90;;;;;;5073007;28;20166;-65
2021/01/09 00:35:53;;;;;;;11.73;8.20;;;-1.30;99.90;;;;;;5072967;28;20187;-64
2021/01/09 00:38:19;;;;;;;11.27;9.40;;;-1.30;99.90;;;;;;5072584;28;20570;-64
2021/01/09 00:40:44;;;;;;;9.30;8.33;;;-1.30;99.90;;;;;;5072966;28;20171;-64
2021/01/09 00:43:10;;;;;;;10.63;8.20;;;-1.30;99.90;;;;;;5072771;28;20536;-64
2021/01/09 00:45:35;;;;;;;9.60;7.60;;;-1.30;99.90;;;;;;5071964;28;20192;-64
2021/01/09 00:48:01;;;;;;;9.10;7.30;;;-1.30;99.90;;;;;;5072256;28;20194;-64
2021/01/09 00:50:27;;;;;;;13.20;9.60;;;-1.20;99.90;;;;;;5072743;28;20726;-64
2021/01/09 00:52:52;;;;;;;12.40;8.70;;;-1.20;99.90;;;;;;5072540;28;20254;-64
2021/01/09 00:55:18;;;;;;;10.10;8.07;;;-1.20;99.90;;;;;;5072603;28;20275;-64
2021/01/09 00:57:43;;;;;;;10.20;7.97;;;-1.20;99.90;;;;;;5071988;28;20330;-65
2021/01/09 01:00:09;;;;;;;13.50;10.17;;;-1.20;99.90;;;;;;5072576;28;20326;-64
2021/01/09 01:02:35;;;;;;;17.47;9.77;;;-1.20;99.90;;;;;;5071034;28;20182;-64
2021/01/09 01:05:00;;;;;;;11.63;8.50;;;-1.10;99.90;;;;;;5072249;28;20801;-65
2021/01/09 01:07:26;;;;;;;9.80;7.77;;;-1.10;99.90;;;;;;5071903;28;20201;-64
2021/01/09 01:09:51;;;;;;;10.77;8.23;;;-1.00;99.90;;;;;;5072373;28;20175;-64
2021/01/09 01:12:17;;;;;;;11.73;8.67;;;-1.10;99.90;;;;;;5072242;28;20168;-64
2021/01/09 01:14:42;;;;;;;11.60;9.63;;;-1.00;99.90;;;;;;5072264;28;20179;-64
2021/01/09 01:17:08;;;;;;;12.87;8.73;;;-1.10;99.90;;;;;;5071896;28;20183;-64
2021/01/09 01:19:33;;;;;;;12.27;8.43;;;-1.00;99.90;;;;;;5071895;28;20175;-64
2021/01/09 01:21:59;;;;;;;8.37;6.97;;;-1.00;99.90;;;;;;5072180;28;20174;-64
2021/01/09 01:24:24;;;;;;;9.67;8.20;;;-1.00;99.90;;;;;;5072015;28;20168;-64
2021/01/09 01:26:50;;;;;;;10.13;7.57;;;-1.00;99.90;;;;;;5071734;28;20191;-64
2021/01/09 01:29:16;;;;;;;8.80;7.80;;;-0.90;99.90;;;;;;5071782;28;20203;-64
2021/01/09 01:31:41;;;;;;;10.20;7.40;;;-0.90;99.90;;;;;;5072050;28;20167;-64
2021/01/09 01:34:06;;;;;;;9.93;7.90;;;-0.90;99.90;;;;;;5071774;28;20167;-64
2021/01/09 01:36:32;;;;;;;9.73;8.63;;;-0.90;99.90;;;;;;5071677;28;20187;-64
2021/01/09 01:38:58;;;;;;;13.03;8.10;;;-0.90;99.90;;;;;;5071713;28;20186;-64
2021/01/09 01:41:23;;;;;;;9.80;8.17;;;-0.90;99.90;;;;;;5071882;28;20687;-64
2021/01/09 01:43:49;;;;;;;8.93;8.03;;;-0.90;99.90;;;;;;5071790;28;20181;-64
2021/01/09 01:46:15;;;;;;;8.90;7.97;;;-0.90;99.90;;;;;;5071837;28;20736;-64
2021/01/09 01:48:41;;;;;;;8.90;7.22;;;-0.80;99.90;;;;;;5071183;28;20215;-64
2021/01/09 01:51:09;;;;;;;9.25;7.32;;;-0.80;99.90;;;;;;5071889;28;20168;-64
2021/01/09 01:53:35;;;;;;;9.57;8.07;;;-0.80;99.90;;;;;;5071716;28;20172;-64
2021/01/09 01:56:00;;;;;;;8.70;7.03;;;-0.80;99.90;;;;;;5071536;28;20182;-64
2021/01/09 01:58:26;;;;;;;7.13;6.43;;;-0.80;99.90;;;;;;5071167;28;20239;-64
2021/01/09 02:00:52;;;;;;;9.23;7.40;;;-0.70;99.90;;;;;;5071734;28;20199;-64
2021/01/09 02:03:19;;;;;;;9.70;7.03;;;-0.70;99.90;;;;;;5071439;28;20183;-64
2021/01/09 02:06:02;;;;;;;7.80;6.28;;;-0.70;99.90;;;;;;5071639;28;20791;-64
2021/01/09 02:08:59;;;;;;;9.52;7.50;;;-0.70;99.90;;;;;;5071106;28;20196;-64
2021/01/09 02:11:37;;;;;;;8.57;6.13;;;-0.70;99.90;;;;;;5071649;28;20258;-64
2021/01/09 02:14:06;;;;;;;11.45;6.68;;;-0.70;99.90;;;;;;5071529;28;20251;-64
2021/01/09 02:16:32;;;;;;;7.38;6.78;;;-0.70;99.90;;;;;;5071249;28;20190;-64
2021/01/09 02:19:00;;;;;;;7.73;6.27;;;-0.80;99.90;;;;;;5071333;28;20168;-64
2021/01/09 02:21:39;;;;;;;6.78;6.18;;;-0.80;99.90;;;;;;5071545;28;20415;-64
2021/01/09 02:24:14;;;;;;;7.55;6.38;;;-0.80;99.90;;;;;;5071290;28;20170;-64
2021/01/09 02:26:40;;;;;;;7.68;6.07;;;-0.80;99.90;;;;;;5071144;28;20274;-64
2021/01/09 02:29:06;;;;;;;6.95;5.25;;;-0.80;99.90;;;;;;5071449;28;20250;-64
2021/01/09 02:31:38;;;;;;;6.57;5.90;;;-0.70;99.90;;;;;;5071487;28;20164;-64
2021/01/09 02:34:08;;;;;;;7.93;6.78;;;-0.70;99.90;;;;;;5071314;28;20164;-64
2021/01/09 02:36:36;;;;;;;7.88;7.07;;;-0.70;99.90;;;;;;5070986;28;20692;-64
2021/01/09 02:39:02;;;;;;;8.82;6.88;;;-0.70;99.90;;;;;;5071206;28;20199;-65
2021/01/09 02:41:28;;;;;;;8.23;6.50;;;-0.60;99.90;;;;;;5071303;28;20584;-64
2021/01/09 02:44:05;;;;;;;9.00;7.10;;;-0.60;99.90;;;;;;5071325;28;20175;-64
2021/01/09 02:46:30;;;;;;;9.68;8.68;;;-0.60;99.90;;;;;;5070998;28;20190;-64
2021/01/09 02:48:56;;;;;;;10.83;7.83;;;-0.60;99.90;;;;;;5071060;28;20279;-64
2021/01/09 02:51:21;;;;;;;14.17;9.10;;;-0.60;99.90;;;;;;5070969;28;20198;-64
2021/01/09 02:53:47;;;;;;;11.77;8.57;;;-0.50;99.90;;;;;;5071262;28;20540;-64
2021/01/09 02:56:12;;;;;;;11.07;8.03;;;-0.50;99.90;;;;;;5070953;28;20194;-64
2021/01/09 02:58:38;;;;;;;12.60;9.03;;;-0.50;99.90;;;;;;5070827;28;20184;-64
2021/01/09 03:01:03;;;;;;;10.60;7.63;;;-0.60;99.90;;;;;;5071094;28;20171;-64
2021/01/09 03:03:29;;;;;;;10.10;7.97;;;-0.50;99.90;;;;;;5071194;28;20168;-64
2021/01/09 03:05:54;;;;;;;7.37;6.33;;;-0.50;99.90;;;;;;5070801;28;20217;-64
2021/01/09 03:08:20;;;;;;;12.87;7.90;;;-0.50;99.90;;;;;;5072480;28;20207;-64
2021/01/09 03:10:45;;;;;;;10.10;8.37;;;-0.40;99.90;;;;;;5074517;28;20172;-64
2021/01/09 03:13:11;;;;;;;7.87;6.83;;;-0.40;99.90;;;;;;5074624;28;20533;-64
2021/01/09 03:15:36;;;;;;;9.17;6.97;;;-0.40;99.90;;;;;;5074411;28;20672;-64
2021/01/09 03:18:02;;;;;;;7.37;6.33;;;-0.30;99.90;;;;;;5074213;28;20182;-64
2021/01/09 03:20:27;;;;;;;9.47;7.30;;;-0.30;99.90;;;;;;5074101;28;20172;-64
2021/01/09 03:22:53;;;;;;;13.57;8.27;;;-0.20;99.90;;;;;;5074535;28;20181;-65
2021/01/09 03:25:18;;;;;;;10.70;7.00;;;-0.30;99.90;;;;;;5074186;28;20559;-64
2021/01/09 03:27:44;;;;;;;12.07;8.10;;;-0.20;99.90;;;;;;5074004;28;20275;-64
2021/01/09 03:30:10;;;;;;;11.33;7.70;;;-0.20;99.90;;;;;;5074391;28;20234;-64
2021/01/09 03:32:35;;;;;;;10.30;8.50;;;-0.20;99.90;;;;;;5074118;28;20239;-64
2021/01/09 03:35:02;;;;;;;8.60;7.70;;;-0.20;99.90;;;;;;5074178;28;20393;-64
2021/01/09 03:37:27;;;;;;;10.57;7.53;;;-0.20;99.90;;;;;;5073748;28;20172;-64
2021/01/09 03:39:52;;;;;;;7.97;6.77;;;-0.10;99.90;;;;;;5074062;28;20185;-65
2021/01/09 03:42:18;;;;;;;8.97;6.70;;;-0.10;99.90;;;;;;5073962;28;20185;-64
2021/01/09 03:44:43;;;;;;;9.40;7.80;;;-0.20;99.90;;;;;;5074142;28;20177;-64
2021/01/09 03:47:09;;;;;;;9.57;7.50;;;-0.10;99.90;;;;;;5072229;28;20193;-64
2021/01/09 03:49:34;;;;;;;7.67;6.23;;;-0.10;99.90;;;;;;5073908;28;20536;-64
2021/01/09 03:52:00;;;;;;;14.07;7.87;;;-0.20;99.90;;;;;;5073391;28;20658;-64
2021/01/09 03:54:25;;;;;;;9.70;7.50;;;-0.10;99.90;;;;;;5072813;28;20170;-64
2021/01/09 03:56:51;;;;;;;9.00;7.53;;;-0.10;99.90;;;;;;5073018;28;20291;-64
2021/01/09 03:59:17;;;;;;;10.43;8.20;;;-0.10;99.90;;;;;;5073759;28;20306;-64
2021/01/09 04:01:43;;;;;;;11.07;7.67;;;-0.10;99.90;;;;;;5073811;28;20253;-64
2021/01/09 04:04:10;;;;;;;7.93;7.10;;;-0.10;99.90;;;;;;5073492;28;20168;-64
2021/01/09 04:06:36;;;;;;;10.90;8.17;;;-0.10;99.90;;;;;;5073356;28;20188;-65
2021/01/09 04:09:02;;;;;;;9.03;7.87;;;-0.10;99.90;;;;;;5073309;28;20448;-64
2021/01/09 04:11:27;;;;;;;11.53;7.80;;;-0.10;99.90;;;;;;5073636;28;20171;-64
2021/01/09 04:13:55;;;;;;;9.43;8.50;;;-0.10;99.90;;;;;;5073434;28;20794;-64
2021/01/09 04:16:21;;;;;;;9.27;7.97;;;-0.10;99.90;;;;;;5073463;28;20181;-65
2021/01/09 04:18:46;;;;;;;11.37;9.40;;;-0.10;99.90;;;;;;5072829;28;20433;-64
2021/01/09 04:21:12;;;;;;;12.20;8.40;;;0.00;99.90;;;;;;5073489;28;20175;-65
2021/01/09 04:23:38;;;;;;;11.93;9.13;;;0.00;99.90;;;;;;5073166;28;20230;-65
2021/01/09 04:26:03;;;;;;;11.63;8.77;;;0.00;99.90;;;;;;5073193;28;20206;-65
2021/01/09 04:28:29;;;;;;;11.17;7.73;;;0.00;99.90;;;;;;5072857;28;20194;-65
2021/01/09 04:30:54;;;;;;;11.40;8.23;;;0.00;99.90;;;;;;5073076;28;20751;-64
2021/01/09 04:33:20;;;;;;;13.10;8.70;;;0.10;99.90;;;;;;5073109;28;20536;-65
2021/01/09 04:35:45;;;;;;;12.90;9.43;;;0.10;99.90;;;;;;5072850;28;20185;-65
2021/01/09 04:38:11;;;;;;;11.00;8.20;;;0.10;99.90;;;;;;5072627;28;20549;-65
2021/01/09 04:40:36;;;;;;;11.00;8.23;;;0.10;99.90;;;;;;5071531;28;20524;-64
2021/01/09 04:43:02;;;;;;;14.47;8.77;;;0.10;99.90;;;;;;5072961;28;20173;-65
2021/01/09 04:45:28;;;;;;;16.97;11.07;;;0.10;99.90;;;;;;5072651;28;20190;-64
2021/01/09 04:47:56;;;;;;;12.50;8.45;;;0.10;99.90;;;;;;5072373;28;20466;-65
2021/01/09 04:50:22;;;;;;;10.85;8.68;;;0.20;99.90;;;;;;5072609;28;20239;-65
2021/01/09 04:52:49;;;;;;;15.27;9.85;;;0.20;99.90;;;;;;5072718;28;20172;-64
2021/01/09 04:55:15;;;;;;;15.38;9.73;;;0.20;99.90;;;;;;5072533;28;20173;-65
2021/01/09 04:57:40;;;;;;;13.37;8.87;;;0.20;99.90;;;;;;5072212;28;20271;-64
2021/01/09 05:00:07;;;;;;;16.40;10.77;;;0.20;99.90;;;;;;5072546;28;20165;-65
2021/01/09 05:02:35;;;;;;;13.80;9.17;;;0.20;99.90;;;;;;5071059;28;20173;-64
2021/01/09 05:05:01;;;;;;;15.05;10.00;;;0.30;99.90;;;;;;5072445;28;20402;-64
2021/01/09 05:07:27;;;;;;;10.93;8.30;;;0.30;99.90;;;;;;5071922;28;20169;-64
2021/01/09 05:10:00;;;;;;;19.53;10.30;;;0.30;99.90;;;;;;5072393;28;20412;-65
2021/01/09 05:12:31;;;;;;;12.35;10.30;;;0.40;99.90;;;;;;5072268;28;20250;-64
2021/01/09 05:14:57;;;;;;;18.38;10.68;;;0.40;99.90;;;;;;5072801;28;20163;-65
2021/01/09 05:17:24;;;;;;;17.37;10.80;;;0.40;99.90;;;;;;5072265;28;20178;-65
2021/01/09 05:19:50;;;;;;;18.90;12.00;;;0.40;99.90;;;;;;5072232;28;20489;-65
2021/01/09 05:22:16;;;;;;;18.50;12.60;;;0.40;99.90;;;;;;5072080;28;20425;-65
2021/01/09 05:24:47;;;;;;;18.13;12.65;;;0.40;99.90;;;;;;5072256;28;20405;-65
2021/01/09 05:27:14;;;;;;;17.07;11.40;;;0.50;99.90;;;;;;5071723;28;20183;-64
2021/01/09 05:29:40;;;;;;;17.67;11.40;;;0.40;99.90;;;;;;5071978;28;20425;-65
2021/01/09 05:32:07;;;;;;;19.93;12.30;;;0.40;99.90;;;;;;5071755;28;20898;-64
2021/01/09 05:34:45;;;;;;;16.80;10.60;;;0.40;99.90;;;;;;5070663;28;20223;-65
2021/01/09 05:37:19;;;;;;;15.63;9.33;;;0.40;99.90;;;;;;5071731;28;20432;-65
2021/01/09 05:39:55;;;;;;;14.03;9.37;;;0.40;99.90;;;;;;5071884;28;20420;-64
2021/01/09 05:42:26;;;;;;;20.70;10.90;;;0.40;99.90;;;;;;5072080;28;20401;-64
2021/01/09 05:44:57;;;;;;;17.13;10.97;;;0.40;99.90;;;;;;5071772;28;20401;-65
2021/01/09 05:47:30;;;;;;;20.88;12.52;;;0.40;99.90;;;;;;5071566;28;20420;-64
2021/01/09 05:50:00;;;;;;;25.63;14.00;;;0.40;99.90;;;;;;5071706;28;20265;-65
2021/01/09 05:52:27;;;;;;;21.33;13.90;;;0.40;99.90;;;;;;5071765;28;20397;-64
2021/01/09 05:54:56;;;;;;;22.77;14.93;;;0.30;99.90;;;;;;5071665;28;20408;-64
2021/01/09 05:57:27;;;;;;;19.13;12.83;;;0.30;99.90;;;;;;5071383;28;20452;-65
2021/01/09 06:00:05;;;;;;;20.17;14.53;;;0.30;99.90;;;;;;5071632;28;21027;-64
2021/01/09 06:03:08;;;;;;;32.40;15.47;;;0.40;99.90;;;;;;5071905;28;20924;-64
2021/01/09 06:05:45;;;;;;;22.17;12.77;;;0.30;99.90;;;;;;5071504;28;20429;-65
2021/01/09 06:08:14;;;;;;;22.25;14.13;;;0.30;99.90;;;;;;5071491;28;20861;-65
2021/01/09 06:10:40;;;;;;;19.43;12.77;;;0.30;99.90;;;;;;5071599;28;20173;-65
2021/01/09 06:13:09;;;;;;;21.50;12.83;;;0.30;99.90;;;;;;5071709;28;20402;-65
2021/01/09 06:15:36;;;;;;;23.43;14.10;;;0.30;99.90;;;;;;5071348;28;20511;-65
2021/01/09 06:18:02;;;;;;;21.30;13.77;;;0.30;99.90;;;;;;5071294;28;20415;-65
2021/01/09 06:20:29;;;;;;;24.03;15.77;;;0.30;99.90;;;;;;5071387;28;20399;-64
2021/01/09 06:22:57;;;;;;;25.77;15.27;;;0.40;99.90;;;;;;5071619;28;20440;-65
2021/01/09 06:25:23;;;;;;;24.53;15.53;;;0.40;99.90;;;;;;5072644;28;20486;-66
2021/01/09 06:27:53;;;;;;;23.83;14.90;;;0.40;99.90;;;;;;5071548;28;20451;-66
2021/01/09 06:30:20;;;;;;;23.07;14.33;;;0.50;99.90;;;;;;5072054;28;20253;-66
2021/01/09 06:32:54;;;;;;;32.28;16.15;;;0.50;99.90;;;;;;5071795;28;20423;-66
2021/01/09 06:35:21;;;;;;;25.85;14.55;;;0.40;99.90;;;;;;5071896;28;20190;-66
2021/01/09 06:37:46;;;;;;;29.03;16.17;;;0.40;99.90;;;;;;5071468;28;20177;-66
2021/01/09 06:40:13;;;;;;;27.20;15.97;;;0.40;99.90;;;;;;5071993;28;20420;-66
2021/01/09 06:42:41;;;;;;;27.20;14.30;;;0.40;99.90;;;;;;5072548;28;20413;-66
2021/01/09 06:45:08;;;;;;;28.27;16.73;;;0.50;99.90;;;;;;5075806;28;20173;-66
2021/01/09 06:47:34;;;;;;;29.70;17.27;;;0.40;99.90;;;;;;5075117;28;20455;-67
2021/01/09 06:50:18;;;;;;;29.17;16.33;;;0.40;99.90;;;;;;5075729;28;20786;-67
2021/01/09 06:52:53;;;;;;;33.10;16.60;;;0.40;99.90;;;;;;5075230;28;20223;-66
2021/01/09 06:55:37;;;;;;;30.70;18.07;;;0.40;99.90;;;;;;5075620;28;20559;-66
2021/01/09 06:58:10;;;;;;;34.88;18.20;;;0.50;99.90;;;;;;5075109;28;20535;-66
2021/01/09 07:00:36;;;;;;;27.80;15.35;;;0.50;99.90;;;;;;5075454;28;20253;-65
2021/01/09 07:03:15;;;;;;;28.83;14.70;;;0.50;99.90;;;;;;5075077;28;20168;-66
2021/01/09 07:05:44;;;;;;;30.37;17.67;;;0.50;99.90;;;;;;5075423;28;20458;-66
2021/01/09 07:08:19;;;;;;;29.67;16.47;;;0.50;99.90;;;;;;5074630;28;20946;-66
2021/01/09 07:10:50;;;;;;;25.90;16.40;;;0.60;99.90;;;;;;5075312;28;20407;-66
2021/01/09 07:13:16;;;;;;;33.93;16.30;;;0.60;99.90;;;;;;5075293;28;20398;-66
2021/01/09 07:15:42;;;;;;;31.70;16.10;;;0.50;99.90;;;;;;5075036;28;20515;-66
2021/01/09 07:18:08;;;;;;;32.03;17.87;;;0.50;99.90;;;;;;5075261;28;20818;-65
2021/01/09 07:20:36;;;;;;;36.07;17.80;;;0.60;99.90;;;;;;5075209;28;20220;-66
2021/01/09 07:23:05;;;;;;;32.97;18.93;;;0.60;99.90;;;;;;5075020;28;20432;-66
2021/01/09 07:25:41;;;;;;;36.60;18.90;;;0.60;99.90;;;;;;5074700;28;20838;-66
2021/01/09 07:28:12;;;;;;;30.97;17.37;;;0.60;99.90;;;;;;5074700;28;20456;-66
2021/01/09 07:30:39;;;;;;;25.90;16.07;;;0.60;99.90;;;;;;5074720;28;20458;-66
2021/01/09 07:33:10;;;;;;;28.50;14.83;;;0.60;99.90;;;;;;5074912;28;20408;-66
2021/01/09 07:35:37;;;;;;;33.85;18.08;;;0.60;99.90;;;;;;5074530;28;20431;-66
2021/01/09 07:38:05;;;;;;;29.03;16.27;;;0.60;99.90;;;;;;5074456;28;20682;-67
2021/01/09 07:40:45;;;;;;;29.37;16.03;;;0.70;99.90;;;;;;5074581;28;20906;-66
2021/01/09 07:43:39;;;;;;;24.77;14.90;;;0.70;99.90;;;;;;5074916;28;20896;-66
2021/01/09 07:46:30;;;;;;;42.43;19.63;;;0.60;99.90;;;;;;5074619;28;20419;-66
2021/01/09 07:49:00;;;;;;;40.35;21.05;;;0.70;99.90;;;;;;5074442;28;20452;-66
2021/01/09 07:51:47;;;;;;;27.07;16.80;;;0.60;99.90;;;;;;5074312;28;20167;-66
2021/01/09 07:54:44;;;;;;;44.17;19.63;;;0.60;99.90;;;;;;5074253;28;20398;-66
2021/01/09 07:57:19;;;;;;;27.37;18.00;;;0.60;99.90;;;;;;5073770;28;20540;-66
2021/01/09 07:59:47;;;;;;;27.13;16.60;;;0.70;99.90;;;;;;5074396;28;20401;-67
2021/01/09 08:02:24;;;;;;;27.90;15.90;;;0.70;99.90;;;;;;5074187;28;20401;-67
2021/01/09 08:04:50;;;;;;;26.20;15.50;;;0.70;99.90;;;;;;5074646;28;20403;-66
2021/01/09 08:07:16;;;;;;;27.97;17.07;;;0.80;99.90;;;;;;5073632;28;20941;-66
2021/01/09 08:09:42;;;;;;;31.47;18.53;;;0.80;99.90;;;;;;5073974;28;20234;-66
2021/01/09 08:12:08;;;;;;;38.60;18.87;;;0.80;99.90;;;;;;5072589;28;20447;-66
2021/01/09 08:14:33;;;;;;;36.20;19.23;;;0.80;99.90;;;;;;5073927;28;20169;-66
2021/01/09 08:17:11;;;;;;;40.47;19.07;;;0.80;99.90;;;;;;5073723;28;20221;-66
2021/01/09 08:19:37;;;;;;;24.37;15.90;;;0.80;99.90;;;;;;5073847;28;20170;-66
2021/01/09 08:22:04;;;;;;;41.37;17.20;;;0.80;99.90;;;;;;5073824;28;20494;-67
2021/01/09 08:24:30;;;;;;;30.20;17.90;;;0.80;99.90;;;;;;5073770;28;20409;-66
2021/01/09 08:26:57;;;;;;;32.53;17.77;;;0.90;99.90;;;;;;5076361;28;20429;-66
2021/01/09 08:29:24;;;;;;;27.23;15.70;;;0.80;99.90;;;;;;5074314;28;20195;-66
2021/01/09 08:31:51;;;;;;;35.73;16.10;;;0.80;99.90;;;;;;5073590;28;20459;-66
2021/01/09 08:34:18;;;;;;;38.37;17.27;;;0.80;99.90;;;;;;5073685;28;20406;-67
2021/01/09 08:36:44;;;;;;;25.40;16.03;;;0.70;99.90;;;;;;5072392;28;20426;-65
2021/01/09 08:39:10;;;;;;;35.90;15.07;;;0.80;99.90;;;;;;5073423;28;20511;-66
2021/01/09 08:41:37;;;;;;;25.90;15.10;;;0.80;99.90;;;;;;5073897;28;20182;-66
2021/01/09 08:44:07;;;;;;;66.40;16.00;;;0.80;99.90;;;;;;5073776;28;20205;-66
2021/01/09 08:46:34;;;;;;;30.50;15.20;;;0.80;99.90;;;;;;5073510;28;20425;-66
2021/01/09 08:49:00;;;;;;;26.50;14.17;;;0.90;99.90;;;;;;5073537;28;20456;-66
2021/01/09 08:51:28;;;;;;;23.77;14.47;;;1.00;99.90;;;;;;5073724;28;20931;-66
2021/01/09 08:54:07;;;;;;;31.73;16.40;;;1.10;99.90;;;;;;5073539;28;20654;-66
2021/01/09 08:56:34;;;;;;;74.57;38.57;;;1.10;99.90;;;;;;5073283;28;20794;-66
2021/01/09 08:59:01;;;;;;;50.53;26.13;;;1.10;99.90;;;;;;5073167;28;20839;-66
2021/01/09 09:01:46;;;;;;;35.43;18.27;;;1.00;99.90;;;;;;5073426;28;20491;-66
2021/01/09 09:04:13;;;;;;;53.07;16.40;;;1.20;99.90;;;;;;5073595;28;20441;-66
2021/01/09 09:06:42;;;;;;;26.63;15.20;;;1.20;99.90;;;;;;5072622;28;20421;-66
2021/01/09 09:09:09;;;;;;;32.10;15.03;;;1.10;99.90;;;;;;5071925;28;20568;-66
2021/01/09 09:11:35;;;;;;;25.13;13.93;;;1.10;99.90;;;;;;5073660;28;20468;-65
2021/01/09 09:14:08;;;;;;;32.63;16.20;;;1.00;99.90;;;;;;5073629;28;20517;-66
2021/01/09 09:16:35;;;;;;;27.30;15.57;;;1.10;99.90;;;;;;5072042;28;20423;-66
2021/01/09 09:19:15;;;;;;;29.97;17.27;;;1.10;99.90;;;;;;5072521;28;20397;-67
2021/01/09 09:21:43;;;;;;;28.23;15.30;;;1.20;99.90;;;;;;5073421;28;20410;-66
2021/01/09 09:24:10;;;;;;;21.50;12.20;;;1.20;99.90;;;;;;5072615;28;20441;-67
2021/01/09 09:26:36;;;;;;;30.63;15.60;;;1.30;99.90;;;;;;5070725;28;20454;-64
2021/01/09 09:29:02;;;;;;;22.53;12.63;;;1.40;99.90;;;;;;5072073;28;20449;-66
2021/01/09 09:31:44;;;;;;;27.30;13.87;;;1.40;99.90;;;;;;5071984;28;20155;-67
2021/01/09 09:34:12;;;;;;;26.40;16.53;;;1.50;99.90;;;;;;5071537;28;20433;-66
2021/01/09 09:36:58;;;;;;;25.37;15.90;;;1.50;99.90;;;;;;5071269;28;20427;-66
2021/01/09 09:39:25;;;;;;;28.90;17.83;;;1.60;99.90;;;;;;5072074;28;20398;-67
2021/01/09 09:41:54;;;;;;;26.63;14.73;;;1.60;99.90;;;;;;5071605;28;20416;-67
2021/01/09 09:44:44;;;;;;;29.60;15.07;;;1.70;99.90;;;;;;5072219;28;20978;-66
2021/01/09 09:47:24;;;;;;;30.53;15.20;;;1.90;99.90;;;;;;5071569;28;20425;-65
2021/01/09 09:49:50;;;;;;;27.33;16.03;;;2.00;99.90;;;;;;5071699;28;20397;-66
2021/01/09 09:52:20;;;;;;;17.83;12.03;;;2.00;99.90;;;;;;5071891;28;20908;-67
2021/01/09 09:54:46;;;;;;;21.20;12.90;;;2.10;99.90;;;;;;5071666;28;20159;-67
2021/01/09 09:57:19;;;;;;;19.97;13.97;;;2.40;99.90;;;;;;5071357;28;20441;-66
2021/01/09 09:59:45;;;;;;;23.73;14.20;;;2.60;99.90;;;;;;5071574;28;20454;-66
2021/01/09 10:02:11;;;;;;;16.83;12.13;;;2.70;99.90;;;;;;5071795;28;20406;-67
2021/01/09 10:04:44;;;;;;;30.93;14.67;;;2.80;99.90;;;;;;5071487;28;20206;-67
2021/01/09 10:07:30;;;;;;;24.13;14.60;;;2.80;99.90;;;;;;5071564;28;20179;-67
2021/01/09 10:09:55;;;;;;;22.00;13.30;;;3.00;99.90;;;;;;5071513;28;20428;-67
2021/01/09 10:12:21;;;;;;;11.20;8.57;;;3.30;99.90;;;;;;5071784;28;20389;-67
2021/01/09 10:14:46;;;;;;;16.03;9.00;;;3.40;99.90;;;;;;5071338;28;20186;-66
2021/01/09 10:17:16;;;;;;;15.17;8.40;;;3.50;99.90;;;;;;5070906;28;20663;-67
2021/01/09 10:19:42;;;;;;;16.03;8.20;;;3.50;99.90;;;;;;5075575;28;20167;-67
2021/01/09 10:22:07;;;;;;;22.80;11.90;;;3.60;99.90;;;;;;5075637;28;20544;-67
2021/01/09 10:24:33;;;;;;;20.30;10.57;;;3.60;99.90;;;;;;5075750;28;20396;-67
2021/01/09 10:27:01;;;;;;;13.57;9.43;;;3.60;99.90;;;;;;5075109;28;20232;-66
2021/01/09 10:29:27;;;;;;;19.50;11.90;;;3.60;99.90;;;;;;5075335;28;20194;-66
2021/01/09 10:31:53;;;;;;;17.33;10.70;;;3.60;99.90;;;;;;5075342;28;20916;-67
2021/01/09 10:34:18;;;;;;;17.57;11.23;;;3.50;99.90;;;;;;5075505;28;20170;-67
2021/01/09 10:36:44;;;;;;;16.03;11.83;;;3.50;99.90;;;;;;5074610;28;20248;-67
2021/01/09 10:39:09;;;;;;;16.57;10.20;;;3.50;99.90;;;;;;5075147;28;20175;-67
2021/01/09 10:41:35;;;;;;;16.70;10.80;;;3.50;99.90;;;;;;5075233;28;20176;-65
2021/01/09 10:44:01;;;;;;;18.70;10.00;;;3.50;99.90;;;;;;5075363;28;20198;-66
2021/01/09 10:46:30;;;;;;;16.30;9.57;;;3.50;99.90;;;;;;5075207;28;20887;-67
2021/01/09 10:48:56;;;;;;;11.50;8.43;;;3.50;99.90;;;;;;5074950;28;20194;-67
2021/01/09 10:51:23;;;;;;;25.57;14.00;;;3.40;99.90;;;;;;5075224;28;20921;-67
2021/01/09 10:53:49;;;;;;;14.30;10.10;;;3.50;99.90;;;;;;5075025;28;20401;-67
2021/01/09 10:56:16;;;;;;;11.37;9.37;;;3.50;99.90;;;;;;5074917;28;20799;-65
2021/01/09 10:58:42;;;;;;;19.90;10.03;;;3.50;99.90;;;;;;5074473;28;20971;-67
2021/01/09 11:01:08;;;;;;;16.20;10.63;;;3.50;99.90;;;;;;5075012;28;20405;-67
2021/01/09 11:03:35;;;;;;;15.47;8.43;;;3.40;99.90;;;;;;5074775;28;20409;-67
2021/01/09 11:06:01;;;;;;;21.90;12.37;;;3.40;99.90;;;;;;5074868;28;20432;-67
2021/01/09 11:08:27;;;;;;;20.87;14.10;;;3.40;99.90;;;;;;5074358;28;20467;-67
2021/01/09 11:10:54;;;;;;;23.93;14.23;;;3.30;99.90;;;;;;5074843;28;20774;-67
2021/01/09 11:13:19;;;;;;;18.70;11.00;;;3.30;99.90;;;;;;5074623;28;20409;-67
2021/01/09 11:15:49;;;;;;;16.43;10.27;;;3.20;99.90;;;;;;5074630;28;20417;-67
2021/01/09 11:18:16;;;;;;;14.27;10.60;;;3.30;99.90;;;;;;5074311;28;20167;-67
2021/01/09 11:20:46;;;;;;;14.70;11.57;;;3.40;99.90;;;;;;5074460;28;20409;-67
2021/01/09 11:23:12;;;;;;;15.10;8.67;;;3.30;99.90;;;;;;5074583;28;20412;-66
2021/01/09 11:25:41;;;;;;;17.33;10.87;;;3.40;99.90;;;;;;5074239;28;20806;-67
2021/01/09 11:28:07;;;;;;;13.50;8.83;;;3.40;99.90;;;;;;5073270;28;20199;-67
2021/01/09 11:30:32;;;;;;;18.53;10.93;;;3.50;99.90;;;;;;5074240;28;20440;-67
2021/01/09 11:32:58;;;;;;;17.17;11.23;;;3.40;99.90;;;;;;5074409;28;20163;-66
2021/01/09 11:35:23;;;;;;;18.27;10.80;;;3.50;99.90;;;;;;5074083;28;20179;-67
2021/01/09 11:37:49;;;;;;;14.10;10.80;;;3.70;99.90;;;;;;5072921;28;20647;-67
2021/01/09 11:40:14;;;;;;;14.40;10.20;;;3.80;99.90;;;;;;5074038;28;20172;-67
2021/01/09 11:42:42;;;;;;;16.10;10.50;;;3.80;99.90;;;;;;5074328;28;20171;-67
2021/01/09 11:45:08;;;;;;;14.53;8.97;;;3.80;99.90;;;;;;5074298;28;20163;-67
2021/01/09 11:47:34;;;;;;;16.67;11.43;;;3.80;99.90;;;;;;5073845;28;20417;-67
2021/01/09 11:49:59;;;;;;;24.73;15.20;;;3.80;99.90;;;;;;5074093;28;20882;-68
2021/01/09 11:52:25;;;;;;;15.40;12.07;;;3.80;99.90;;;;;;5073860;28;20171;-67
2021/01/09 11:54:50;;;;;;;21.33;11.23;;;4.00;99.90;;;;;;5073994;28;20171;-67
2021/01/09 11:57:16;;;;;;;15.47;9.53;;;4.00;99.90;;;;;;5073624;28;20218;-67
2021/01/09 11:59:41;;;;;;;18.07;11.37;;;4.10;99.90;;;;;;5074232;28;20171;-67
2021/01/09 12:02:07;;;;;;;12.30;9.53;;;4.10;99.90;;;;;;5073674;28;20175;-66
2021/01/09 12:04:33;;;;;;;10.33;8.37;;;4.30;99.90;;;;;;5073873;28;20171;-67
2021/01/09 12:06:58;;;;;;;14.77;13.27;;;4.20;99.90;;;;;;5073632;28;20214;-67
2021/01/09 12:09:24;;;;;;;14.90;12.77;;;4.10;99.90;;;;;;5073379;28;20202;-67
2021/01/09 12:11:54;;;;;;;51.80;47.80;;;4.10;99.90;;;;;;5073651;28;20175;-67
2021/01/09 12:14:20;;;;;;;19.67;17.60;;;4.00;99.90;;;;;;5073586;28;20398;-67
2021/01/09 12:16:45;;;;;;;15.40;12.00;;;4.10;99.90;;;;;;5073267;28;20795;-66
2021/01/09 12:19:11;;;;;;;11.77;8.50;;;4.10;99.90;;;;;;5073325;28;20251;-68
2021/01/09 12:21:36;;;;;;;15.53;9.17;;;4.10;99.90;;;;;;5073634;28;20174;-68
2021/01/09 12:24:03;;;;;;;9.23;6.20;;;4.10;99.90;;;;;;5073655;28;20187;-65
2021/01/09 12:26:29;;;;;;;13.37;8.40;;;4.30;99.90;;;;;;5073150;28;20220;-66
2021/01/09 12:28:54;;;;;;;11.90;9.13;;;4.20;99.90;;;;;;5071561;28;20461;-66
2021/01/09 12:31:34;;;;;;;13.37;7.97;;;4.30;99.90;;;;;;5073178;28;20417;-65
2021/01/09 12:34:03;;;;;;;13.90;9.77;;;4.30;99.90;;;;;;5073247;28;20562;-66
2021/01/09 12:36:29;;;;;;;12.30;9.10;;;4.20;99.90;;;;;;5072788;28;20429;-66
2021/01/09 12:38:55;;;;;;;15.20;9.80;;;4.30;99.90;;;;;;5072807;28;20417;-66
2021/01/09 12:41:29;;;;;;;15.37;10.50;;;4.20;99.90;;;;;;5071817;28;20879;-65
2021/01/09 12:43:55;;;;;;;17.20;11.10;;;4.20;99.90;;;;;;5073053;28;20257;-65
2021/01/09 12:46:20;;;;;;;51.80;31.23;;;4.10;99.90;;;;;;5072723;28;20516;-66